createdAt,value
2019-02-28T00:01:25.986Z,16.03
2019-02-28T00:03:57.965Z,16.43
2019-02-28T00:06:28.565Z,16.87
2019-02-28T00:08:59.301Z,16.17
2019-02-28T00:11:30.250Z,16.07
2019-02-28T00:14:02.015Z,17.03
2019-02-28T00:16:35.657Z,16.73
2019-02-28T00:19:04.157Z,16.03
2019-02-28T00:21:34.230Z,16.57
2019-02-28T00:24:07.113Z,17.10
2019-02-28T00:26:37.284Z,15.90
2019-02-28T00:29:09.489Z,16.40
2019-02-28T00:31:40.675Z,15.77
2019-02-28T00:34:12.778Z,16.53
2019-02-28T00:36:44.401Z,16.27
2019-02-28T00:39:15.346Z,16.07
2019-02-28T00:41:46.383Z,16.20
2019-02-28T00:44:16.279Z,16.93
2019-02-28T00:46:48.008Z,16.90
2019-02-28T00:49:21.297Z,16.30
2019-02-28T00:51:51.877Z,16.33
2019-02-28T00:54:21.661Z,15.83
2019-02-28T00:56:52.475Z,16.80
2019-02-28T00:59:23.381Z,17.27
2019-02-28T01:01:53.465Z,17.87
2019-02-28T01:04:24.328Z,16.13
2019-02-28T01:06:54.413Z,16.83
2019-02-28T01:09:27.112Z,16.53
2019-02-28T01:11:57.375Z,17.60
2019-02-28T01:14:28.289Z,16.97
2019-02-28T01:16:59.038Z,17.30
2019-02-28T01:19:32.429Z,17.77
2019-02-28T01:22:02.542Z,16.93
2019-02-28T01:27:23.533Z,17.53
2019-02-28T01:29:53.333Z,17.57
2019-02-28T01:32:24.365Z,18.40
2019-02-28T01:34:56.146Z,18.47
2019-02-28T01:37:26.198Z,18.30
2019-02-28T01:39:57.357Z,17.80
2019-02-28T01:42:27.240Z,18.93
2019-02-28T01:44:57.947Z,18.13
2019-02-28T01:47:29.281Z,19.53
2019-02-28T01:50:00.424Z,19.37
2019-02-28T01:52:30.622Z,19.67
2019-02-28T01:55:01.889Z,18.73
2019-02-28T01:57:35.229Z,19.57
2019-02-28T02:00:11.489Z,20.43
2019-02-28T02:02:42.713Z,19.07
2019-02-28T02:05:16.869Z,20.37
2019-02-28T02:07:46.742Z,21.07
2019-02-28T02:10:22.739Z,21.33
2019-02-28T02:12:52.582Z,20.53
2019-02-28T02:15:22.313Z,19.43
2019-02-28T02:17:52.133Z,21.27
2019-02-28T02:20:23.391Z,21.27
2019-02-28T02:22:54.197Z,20.90
2019-02-28T02:25:25.878Z,21.83
2019-02-28T02:27:56.805Z,21.67
2019-02-28T02:30:27.518Z,21.53
2019-02-28T02:32:58.458Z,21.80
2019-02-28T02:35:28.324Z,21.17
2019-02-28T02:38:03.615Z,21.93
2019-02-28T02:40:31.721Z,22.13
2019-02-28T02:43:02.551Z,20.90
2019-02-28T02:45:32.341Z,21.07
2019-02-28T02:48:05.198Z,21.77
2019-02-28T02:50:36.009Z,22.07
2019-02-28T02:53:07.302Z,22.53
2019-02-28T02:55:38.722Z,22.37
2019-02-28T02:58:10.548Z,21.13
2019-02-28T03:00:41.443Z,21.77
2019-02-28T03:03:13.883Z,22.47
2019-02-28T03:05:43.856Z,23.40
2019-02-28T03:08:14.578Z,22.13
2019-02-28T03:10:45.601Z,22.80
2019-02-28T03:13:15.760Z,21.77
2019-02-28T03:15:47.227Z,23.17
2019-02-28T03:18:20.467Z,21.93
2019-02-28T03:20:51.798Z,22.47
2019-02-28T03:23:22.555Z,22.43
2019-02-28T03:25:54.471Z,22.67
2019-02-28T03:28:28.080Z,22.80
2019-02-28T03:31:11.344Z,23.47
2019-02-28T03:33:31.341Z,23.13
2019-02-28T03:36:01.246Z,24.97
2019-02-28T03:38:31.318Z,25.50
2019-02-28T03:41:02.793Z,24.37
2019-02-28T03:43:34.105Z,23.23
2019-02-28T03:46:06.270Z,25.00
2019-02-28T03:48:36.329Z,23.97
2019-02-28T03:51:06.181Z,22.97
2019-02-28T03:53:39.622Z,31.53
2019-02-28T03:56:14.286Z,25.80
2019-02-28T03:58:43.295Z,23.93
2019-02-28T04:01:13.475Z,24.43
2019-02-28T04:03:44.697Z,22.33
2019-02-28T04:06:14.858Z,25.80
2019-02-28T04:08:45.942Z,28.00
2019-02-28T04:11:16.233Z,26.77
2019-02-28T04:13:52.359Z,28.00
2019-02-28T04:16:20.815Z,27.77
2019-02-28T04:18:51.838Z,27.73
2019-02-28T04:21:22.561Z,27.37
2019-02-28T04:23:52.322Z,26.40
2019-02-28T04:26:22.408Z,26.60
2019-02-28T04:28:54.877Z,28.07
2019-02-28T04:31:26.364Z,27.23
2019-02-28T04:33:56.547Z,38.03
2019-02-28T04:36:28.090Z,35.67
2019-02-28T04:38:58.950Z,33.57
2019-02-28T04:41:32.494Z,29.87
2019-02-28T04:44:02.373Z,27.73
2019-02-28T04:46:32.639Z,29.13
2019-02-28T04:49:04.407Z,29.77
2019-02-28T04:51:33.673Z,28.10
2019-02-28T04:54:05.334Z,29.10
2019-02-28T04:56:35.937Z,27.60
2019-02-28T04:59:07.273Z,28.23
2019-02-28T05:01:37.176Z,29.23
2019-02-28T05:04:11.279Z,27.97
2019-02-28T05:06:42.450Z,29.03
2019-02-28T05:09:14.470Z,30.77
2019-02-28T05:11:45.781Z,31.23
2019-02-28T05:14:16.407Z,30.60
2019-02-28T05:16:47.517Z,30.03
2019-02-28T05:19:20.330Z,31.53
2019-02-28T05:21:50.601Z,31.67
2019-02-28T05:24:24.325Z,31.83
2019-02-28T05:26:54.181Z,30.10
2019-02-28T05:29:24.260Z,31.20
2019-02-28T05:31:54.162Z,30.43
2019-02-28T05:34:24.903Z,31.17
2019-02-28T05:36:55.625Z,34.13
2019-02-28T05:39:28.243Z,31.83
2019-02-28T05:41:58.526Z,33.10
2019-02-28T05:44:28.430Z,33.03
2019-02-28T05:46:59.887Z,33.33
2019-02-28T05:49:30.574Z,32.40
2019-02-28T05:52:03.782Z,32.30
2019-02-28T05:54:36.713Z,35.57
2019-02-28T05:57:08.264Z,36.17
2019-02-28T05:59:39.053Z,34.97
2019-02-28T06:02:08.949Z,40.70
2019-02-28T06:04:40.385Z,37.80
2019-02-28T06:07:11.625Z,37.47
2019-02-28T06:09:41.319Z,36.10
2019-02-28T06:12:11.506Z,36.03
2019-02-28T06:14:41.397Z,37.10
2019-02-28T06:17:12.314Z,37.33
2019-02-28T06:19:44.245Z,38.30
2019-02-28T06:22:14.282Z,38.40
2019-02-28T06:24:45.931Z,33.63
2019-02-28T06:27:16.655Z,38.30
2019-02-28T06:29:46.453Z,38.00
2019-02-28T06:32:16.228Z,38.37
2019-02-28T06:34:46.294Z,37.83
2019-02-28T06:37:16.419Z,38.60
2019-02-28T06:39:47.438Z,40.03
2019-02-28T06:42:18.179Z,40.40
2019-02-28T06:44:50.573Z,39.67
2019-02-28T06:47:20.326Z,39.33
2019-02-28T06:49:50.105Z,40.80
2019-02-28T06:52:22.254Z,39.67
2019-02-28T06:54:51.373Z,40.53
2019-02-28T06:57:22.986Z,39.87
2019-02-28T06:59:52.757Z,43.43
2019-02-28T07:02:23.789Z,42.40
2019-02-28T07:04:54.959Z,41.73
2019-02-28T07:07:24.813Z,42.10
2019-02-28T07:09:54.608Z,42.63
2019-02-28T07:12:29.525Z,44.47
2019-02-28T07:14:59.162Z,42.23
2019-02-28T07:17:29.489Z,43.07
2019-02-28T07:20:02.067Z,48.17
2019-02-28T07:22:33.009Z,44.97
2019-02-28T07:25:03.087Z,44.27
2019-02-28T07:27:34.684Z,44.63
2019-02-28T07:30:07.800Z,43.30
2019-02-28T07:32:38.481Z,44.70
2019-02-28T07:35:09.229Z,44.77
2019-02-28T07:37:40.890Z,43.63
2019-02-28T07:40:16.381Z,44.03
2019-02-28T07:42:44.607Z,45.83
2019-02-28T07:45:14.834Z,44.03
2019-02-28T07:47:51.619Z,43.97
2019-02-28T07:50:18.824Z,44.40
2019-02-28T07:52:49.602Z,45.20
2019-02-28T07:55:21.012Z,43.57
2019-02-28T07:57:56.286Z,44.63
2019-02-28T08:00:25.502Z,41.23
2019-02-28T08:02:55.266Z,44.90
2019-02-28T08:05:29.899Z,43.07
2019-02-28T08:07:57.762Z,43.37
2019-02-28T08:10:30.965Z,43.30
2019-02-28T08:13:03.059Z,42.00
2019-02-28T08:15:36.082Z,42.20
2019-02-28T08:18:06.158Z,42.43
2019-02-28T08:20:36.236Z,42.47
2019-02-28T08:23:07.389Z,43.10
2019-02-28T08:25:39.714Z,43.10
2019-02-28T08:28:10.306Z,42.50
2019-02-28T08:30:41.451Z,42.43
2019-02-28T08:33:11.726Z,43.37
2019-02-28T08:35:44.138Z,43.47
2019-02-28T08:38:13.997Z,46.07
2019-02-28T08:40:44.002Z,43.37
2019-02-28T08:43:14.734Z,42.43
2019-02-28T08:45:45.450Z,43.47
2019-02-28T08:48:16.135Z,41.43
2019-02-28T08:50:47.085Z,43.07
2019-02-28T08:53:16.982Z,43.77
2019-02-28T08:55:47.774Z,43.43
2019-02-28T08:58:17.554Z,42.60
2019-02-28T09:00:48.207Z,40.87
2019-02-28T09:03:19.926Z,40.83
2019-02-28T09:05:49.661Z,41.77
2019-02-28T09:08:22.418Z,41.60
2019-02-28T09:10:53.758Z,40.70
2019-02-28T09:13:25.119Z,40.37
2019-02-28T09:15:55.216Z,41.57
2019-02-28T09:18:27.513Z,39.53
2019-02-28T09:20:57.269Z,39.87
2019-02-28T09:23:28.009Z,40.70
2019-02-28T09:25:58.654Z,41.33
2019-02-28T09:28:30.286Z,41.27
2019-02-28T09:31:01.335Z,40.63
2019-02-28T09:33:34.187Z,40.13
2019-02-28T09:36:04.094Z,40.07
2019-02-28T09:38:35.133Z,40.40
2019-02-28T09:41:06.886Z,40.70
2019-02-28T09:43:37.512Z,39.07
2019-02-28T09:46:09.001Z,39.37
2019-02-28T09:48:40.418Z,34.97
2019-02-28T09:51:11.249Z,38.57
2019-02-28T09:53:41.003Z,37.10
2019-02-28T09:56:12.650Z,39.23
2019-02-28T09:58:42.724Z,40.90
2019-02-28T10:01:13.502Z,38.87
2019-02-28T10:03:44.493Z,40.70
2019-02-28T10:06:16.416Z,39.30
2019-02-28T10:08:47.208Z,37.53
2019-02-28T10:11:18.012Z,37.83
2019-02-28T10:13:53.155Z,37.03
2019-02-28T10:16:22.901Z,37.47
2019-02-28T10:18:52.637Z,36.37
2019-02-28T10:21:23.290Z,35.77
2019-02-28T10:23:53.455Z,33.60
2019-02-28T10:26:26.198Z,31.73
2019-02-28T10:28:57.322Z,32.37
2019-02-28T10:31:35.378Z,32.93
2019-02-28T10:34:00.042Z,33.47
2019-02-28T10:36:30.209Z,34.97
2019-02-28T10:39:02.742Z,32.37
2019-02-28T10:41:33.849Z,32.40
2019-02-28T10:44:05.910Z,33.60
2019-02-28T10:46:37.073Z,33.07
2019-02-28T10:49:07.345Z,33.37
2019-02-28T10:51:37.266Z,35.53
2019-02-28T10:54:11.269Z,30.17
2019-02-28T10:56:40.769Z,33.90
2019-02-28T10:59:11.522Z,33.77
2019-02-28T11:01:42.738Z,35.77
2019-02-28T11:04:13.164Z,35.03
2019-02-28T11:06:43.993Z,34.67
2019-02-28T11:09:18.275Z,36.50
2019-02-28T11:11:49.421Z,34.73
2019-02-28T11:14:19.158Z,35.37
2019-02-28T11:16:50.162Z,35.37
2019-02-28T11:19:20.073Z,34.97
2019-02-28T11:21:52.523Z,35.97
2019-02-28T11:24:26.971Z,33.90
2019-02-28T11:26:56.537Z,35.00
2019-02-28T11:29:27.627Z,36.87
2019-02-28T11:31:59.092Z,35.83
2019-02-28T11:34:31.006Z,36.40
2019-02-28T11:37:01.589Z,35.37
2019-02-28T11:39:33.728Z,35.13
2019-02-28T11:42:04.557Z,37.17
2019-02-28T11:44:35.206Z,36.47
2019-02-28T11:47:08.411Z,35.40
2019-02-28T11:49:40.589Z,37.07
2019-02-28T11:52:11.245Z,37.63
2019-02-28T11:54:45.179Z,37.47
2019-02-28T11:57:14.322Z,37.70
2019-02-28T11:59:45.073Z,38.20
2019-02-28T12:02:15.130Z,39.87
2019-02-28T12:04:45.989Z,38.73
2019-02-28T12:07:15.765Z,40.63
2019-02-28T12:09:46.455Z,42.77
2019-02-28T12:12:17.471Z,45.60
2019-02-28T12:14:47.279Z,44.93
2019-02-28T12:17:18.205Z,46.10
2019-02-28T12:19:50.642Z,45.63
2019-02-28T12:22:23.849Z,49.60
2019-02-28T12:24:55.274Z,52.03
2019-02-28T12:27:27.600Z,49.60
2019-02-28T12:29:57.049Z,48.03
2019-02-28T12:32:27.934Z,48.50
2019-02-28T12:35:01.477Z,47.87
2019-02-28T12:37:32.106Z,49.63
2019-02-28T12:40:01.841Z,49.83
2019-02-28T12:42:34.618Z,50.10
2019-02-28T12:45:04.531Z,51.70
2019-02-28T12:47:38.634Z,52.03
2019-02-28T12:50:10.223Z,51.90
2019-02-28T12:52:48.992Z,52.07
2019-02-28T12:55:17.437Z,54.70
2019-02-28T12:57:47.210Z,51.90
2019-02-28T13:00:36.364Z,54.13
2019-02-28T13:03:09.093Z,50.83
2019-02-28T13:05:43.553Z,46.03
2019-02-28T13:08:14.702Z,43.43
2019-02-28T13:10:45.725Z,42.27
2019-02-28T13:13:16.559Z,40.13
2019-02-28T13:15:49.293Z,40.77
2019-02-28T13:18:19.124Z,37.70
2019-02-28T13:20:50.661Z,38.37
2019-02-28T13:23:20.360Z,37.50
2019-02-28T13:25:50.090Z,36.23
2019-02-28T13:28:22.107Z,36.87
2019-02-28T13:30:53.551Z,37.60
2019-02-28T13:33:24.557Z,37.57
2019-02-28T13:35:54.263Z,36.60
2019-02-28T13:38:24.425Z,36.67
2019-02-28T13:40:55.345Z,36.97
2019-02-28T13:43:25.373Z,36.83
2019-02-28T13:45:56.287Z,37.97
2019-02-28T13:48:33.052Z,38.90
2019-02-28T13:50:59.373Z,39.47
2019-02-28T13:53:31.808Z,42.90
2019-02-28T13:56:04.950Z,43.90
2019-02-28T13:58:34.174Z,45.63
2019-02-28T14:01:04.473Z,47.17
2019-02-28T14:03:35.539Z,46.10
2019-02-28T14:06:12.124Z,47.07
2019-02-28T14:08:42.048Z,47.77
2019-02-28T14:11:12.589Z,47.67
2019-02-28T14:13:42.037Z,47.97
2019-02-28T14:16:12.226Z,47.87
2019-02-28T14:18:45.446Z,46.83
2019-02-28T14:21:16.011Z,45.67
2019-02-28T14:23:47.862Z,43.67
2019-02-28T14:26:18.032Z,43.97
2019-02-28T14:28:50.239Z,41.53
2019-02-28T14:31:20.214Z,43.63
2019-02-28T14:33:51.481Z,44.13
2019-02-28T14:36:23.930Z,41.77
2019-02-28T14:38:56.201Z,41.80
2019-02-28T14:41:28.428Z,53.40
2019-02-28T14:43:58.058Z,41.07
2019-02-28T14:46:29.119Z,41.07
2019-02-28T14:49:00.159Z,40.00
2019-02-28T14:51:30.061Z,39.77
2019-02-28T14:54:00.182Z,39.13
2019-02-28T14:56:30.314Z,38.87
2019-02-28T14:59:00.445Z,38.07
2019-02-28T15:01:31.629Z,38.30
2019-02-28T15:04:02.708Z,36.43
2019-02-28T15:06:32.264Z,34.87
2019-02-28T15:09:02.002Z,35.70
2019-02-28T15:11:33.166Z,33.47
2019-02-28T15:14:05.665Z,33.77
2019-02-28T15:16:36.202Z,34.30
2019-02-28T15:19:06.926Z,32.27
2019-02-28T15:21:42.363Z,32.70
2019-02-28T15:24:10.510Z,28.83
2019-02-28T15:26:40.738Z,28.13
2019-02-28T15:29:12.281Z,29.03
2019-02-28T15:31:46.362Z,26.90
2019-02-28T15:34:16.937Z,25.63
2019-02-28T15:36:46.842Z,24.97
2019-02-28T15:39:17.184Z,24.50
2019-02-28T15:41:48.516Z,24.43
2019-02-28T15:44:20.386Z,22.00
2019-02-28T15:46:51.375Z,22.80
2019-02-28T15:49:23.314Z,22.50
2019-02-28T15:51:53.196Z,20.80
2019-02-28T15:54:25.278Z,19.97
2019-02-28T15:56:56.231Z,18.60
2019-02-28T15:59:28.042Z,17.07
2019-02-28T16:02:03.514Z,17.17
2019-02-28T16:04:33.717Z,17.30
2019-02-28T16:07:03.916Z,17.30
2019-02-28T16:09:38.061Z,16.73
2019-02-28T16:12:07.909Z,17.70
2019-02-28T16:14:39.838Z,17.03
2019-02-28T16:17:10.593Z,18.00
2019-02-28T16:19:41.205Z,18.07
2019-02-28T16:22:14.649Z,17.80
2019-02-28T16:24:44.448Z,18.70
2019-02-28T16:27:15.029Z,17.77
2019-02-28T16:29:45.198Z,17.20
2019-02-28T16:32:15.447Z,16.27
2019-02-28T16:34:45.389Z,17.00
2019-02-28T16:37:16.439Z,15.30
2019-02-28T16:39:50.926Z,16.57
2019-02-28T16:42:21.088Z,15.53
2019-02-28T16:44:52.158Z,14.50
2019-02-28T16:47:24.485Z,14.40
2019-02-28T16:49:55.158Z,13.43
2019-02-28T16:52:25.255Z,13.30
2019-02-28T16:54:57.064Z,12.07
2019-02-28T16:57:27.809Z,13.33
2019-02-28T16:59:58.830Z,11.90
2019-02-28T17:02:30.114Z,11.30
2019-02-28T17:05:01.236Z,9.90
2019-02-28T17:07:32.069Z,10.17
2019-02-28T17:10:04.508Z,10.50
2019-02-28T17:12:39.897Z,10.80
2019-02-28T17:15:14.976Z,10.17
2019-02-28T17:17:48.978Z,8.27
2019-02-28T17:20:19.968Z,8.43
2019-02-28T17:22:50.249Z,8.10
2019-02-28T17:25:21.636Z,7.93
2019-02-28T17:28:00.350Z,7.73
2019-02-28T17:30:36.163Z,7.13
2019-02-28T17:33:09.161Z,6.90
2019-02-28T17:35:40.700Z,7.73
2019-02-28T17:38:12.214Z,7.27
2019-02-28T17:40:42.453Z,6.57
2019-02-28T17:43:13.561Z,6.77
2019-02-28T17:45:47.237Z,7.13
2019-02-28T17:48:18.362Z,6.43
2019-02-28T17:50:50.968Z,6.67
2019-02-28T17:53:27.153Z,7.00
2019-02-28T17:56:10.057Z,9.40
2019-02-28T17:58:49.806Z,8.20
2019-02-28T18:01:28.754Z,8.80
2019-02-28T18:04:08.256Z,7.50
2019-02-28T18:06:43.714Z,8.43
2019-02-28T18:09:22.238Z,7.53
2019-02-28T18:12:05.887Z,8.50
2019-02-28T18:14:42.390Z,7.93
2019-02-28T18:17:33.417Z,8.00
2019-02-28T18:20:05.902Z,7.93
2019-02-28T18:23:06.903Z,8.50
2019-02-28T18:25:48.620Z,8.87
2019-02-28T18:28:32.562Z,8.57
2019-02-28T18:31:15.102Z,7.93
2019-02-28T18:33:46.250Z,7.80
2019-02-28T18:36:19.677Z,8.03
2019-02-28T18:38:49.941Z,7.57
2019-02-28T18:41:20.245Z,7.50
2019-02-28T18:43:53.496Z,7.40
2019-02-28T18:46:25.167Z,7.77
2019-02-28T18:48:55.793Z,39.33
2019-02-28T18:51:26.593Z,8.73
2019-02-28T18:53:55.845Z,7.53
2019-02-28T18:56:28.558Z,7.93
2019-02-28T18:59:01.365Z,8.03
2019-02-28T19:01:32.911Z,7.57
2019-02-28T19:04:03.186Z,9.17
2019-02-28T19:06:33.398Z,9.30
2019-02-28T19:09:07.012Z,8.70
2019-02-28T19:11:37.993Z,9.03
2019-02-28T19:14:08.675Z,7.70
2019-02-28T19:16:39.390Z,8.47
2019-02-28T19:19:09.180Z,8.83
2019-02-28T19:21:39.824Z,6.97
2019-02-28T19:24:10.617Z,6.60
2019-02-28T19:26:41.626Z,7.50
2019-02-28T19:29:12.397Z,7.80
2019-02-28T19:31:45.295Z,6.60
2019-02-28T19:34:17.373Z,5.77
2019-02-28T19:36:47.977Z,6.90
2019-02-28T19:39:19.988Z,6.80
2019-02-28T19:41:51.098Z,7.07
2019-02-28T19:44:22.719Z,7.30
2019-02-28T19:46:52.944Z,7.40
2019-02-28T19:49:24.800Z,6.40
2019-02-28T19:51:55.446Z,7.00
2019-02-28T19:54:26.084Z,6.87
2019-02-28T19:56:56.121Z,6.50
2019-02-28T19:59:26.317Z,6.70
2019-02-28T20:01:56.204Z,7.77
2019-02-28T20:04:26.310Z,6.93
2019-02-28T20:06:56.041Z,6.50
2019-02-28T20:09:28.359Z,7.60
2019-02-28T20:11:58.577Z,8.33
2019-02-28T20:14:28.956Z,9.13
2019-02-28T20:17:00.081Z,9.17
2019-02-28T20:19:29.889Z,9.70
2019-02-28T20:21:59.664Z,9.00
2019-02-28T20:24:30.301Z,9.30
2019-02-28T20:27:02.029Z,9.30
2019-02-28T20:29:32.963Z,9.17
2019-02-28T20:32:04.408Z,9.73
2019-02-28T20:34:35.530Z,9.63
2019-02-28T20:37:07.514Z,8.83
2019-02-28T20:39:38.085Z,10.10
2019-02-28T20:42:08.885Z,9.20
2019-02-28T20:44:39.918Z,10.47
2019-02-28T20:47:11.149Z,10.50
2019-02-28T20:49:41.958Z,11.87
2019-02-28T20:52:11.761Z,11.80
2019-02-28T20:54:41.509Z,12.17
2019-02-28T20:57:12.234Z,13.07
2019-02-28T20:59:44.601Z,12.10
2019-02-28T21:02:14.533Z,12.50
2019-02-28T21:04:46.093Z,12.27
2019-02-28T21:07:18.793Z,11.67
2019-02-28T21:09:49.983Z,12.00
2019-02-28T21:12:20.162Z,11.50
2019-02-28T21:14:50.098Z,11.30
2019-02-28T21:17:29.151Z,11.70
2019-02-28T21:19:53.966Z,10.87
2019-02-28T21:22:25.156Z,10.30
2019-02-28T21:24:57.993Z,11.20
2019-02-28T21:27:28.726Z,11.60
2019-02-28T21:29:59.704Z,11.97
2019-02-28T21:32:29.619Z,11.90
2019-02-28T21:35:00.307Z,11.23
2019-02-28T21:37:31.879Z,13.07
2019-02-28T21:40:01.666Z,12.03
2019-02-28T21:42:32.682Z,12.13
2019-02-28T21:45:02.586Z,12.47
2019-02-28T21:47:33.293Z,12.33
2019-02-28T21:50:06.443Z,14.10
2019-02-28T21:52:36.433Z,15.03
2019-02-28T21:55:08.718Z,14.93
2019-02-28T21:57:38.484Z,16.77
2019-02-28T22:00:27.373Z,14.10
2019-02-28T22:02:57.174Z,15.77
2019-02-28T22:05:27.870Z,15.30
2019-02-28T22:08:00.999Z,14.83
2019-02-28T22:10:31.301Z,15.27
2019-02-28T22:13:02.861Z,16.43
2019-02-28T22:15:33.140Z,17.17
2019-02-28T22:18:06.071Z,17.40
2019-02-28T22:20:36.897Z,15.63
2019-02-28T22:23:09.611Z,16.60
2019-02-28T22:25:39.773Z,14.90
2019-02-28T22:28:10.931Z,14.80
2019-02-28T22:30:43.654Z,15.03
2019-02-28T22:33:26.978Z,15.60
2019-02-28T22:36:04.929Z,17.10
2019-02-28T22:38:35.917Z,15.30
2019-02-28T22:41:06.681Z,15.27
2019-02-28T22:43:38.767Z,15.67
2019-02-28T22:46:09.441Z,16.20
2019-02-28T22:48:38.757Z,15.37
2019-02-28T22:51:09.937Z,15.23
2019-02-28T22:53:39.838Z,16.50
2019-02-28T22:56:09.921Z,15.77
2019-02-28T22:58:40.109Z,16.80
2019-02-28T23:01:14.781Z,16.33
2019-02-28T23:03:44.585Z,15.77
2019-02-28T23:06:15.299Z,14.07
2019-02-28T23:08:47.574Z,16.47
2019-02-28T23:11:18.414Z,16.50
2019-02-28T23:13:49.423Z,16.27
2019-02-28T23:16:20.506Z,16.07
2019-02-28T23:18:53.006Z,15.63
2019-02-28T23:21:24.041Z,15.77
2019-02-28T23:23:56.138Z,15.63
2019-02-28T23:26:27.217Z,13.80
2019-02-28T23:28:58.574Z,14.47
2019-02-28T23:31:32.847Z,14.27
2019-02-28T23:34:05.005Z,13.47
2019-02-28T23:36:36.062Z,13.50
2019-02-28T23:39:09.154Z,13.50
2019-02-28T23:41:41.498Z,13.30
2019-02-28T23:44:12.377Z,12.60
2019-02-28T23:46:43.025Z,12.57
2019-02-28T23:49:13.179Z,12.20
2019-02-28T23:51:43.045Z,11.93
2019-02-28T23:54:12.866Z,12.87
2019-02-28T23:56:43.569Z,13.30
2019-02-28T23:59:14.540Z,12.57
